Time;durP1;ratioP1;P1;durP2;ratioP2;P2;SDS_P1;SDS_P2;PMS_P1;PMS_P2;Temp;Humidity;BMP_temperature;BMP_pressure;BME280_temperature;BME280_humidity;BME280_pressure;Samples;Min_cycle;Max_cycle;Signal;HPM_P1;HPM_P2
2021/08/09 00:02:22;;;;;;;6.38;3.50;;;;;;;22.78;69.26;100252.03;3689153;23;23022;-73
2021/08/09 00:04:55;;;;;;;5.32;3.95;;;;;;;22.43;70.35;100254.59;3649951;23;20045;-72
2021/08/09 00:07:38;;;;;;;5.75;4.05;;;;;;;22.69;69.44;100247.53;3643350;23;20334;-72
2021/08/09 00:10:36;;;;;;;5.30;3.53;;;;;;;22.59;70.70;100250.91;1170507;23;20171;-72
2021/08/09 00:13:12;;;;;;;6.15;3.47;;;;;;;22.30;72.55;100253.00;3582408;23;20126;-70
2021/08/09 00:15:38;;;;;;;7.05;3.38;;;;;;;22.53;72.11;100244.38;3484409;41;20033;-72
2021/08/09 00:20:33;;;;;;;5.60;3.45;;;;;;;22.28;73.69;100252.28;3589925;23;20085;-71
2021/08/09 00:22:59;;;;;;;4.18;3.30;;;;;;;22.69;73.21;100246.72;3475341;41;20041;-71
2021/08/09 00:25:24;;;;;;;4.35;3.45;;;;;;;22.43;74.02;100248.59;3467688;41;20041;-71
2021/08/09 00:27:51;;;;;;;5.53;3.47;;;;;;;21.93;75.93;100241.84;3475945;41;20038;-72
2021/08/09 00:32:47;;;;;;;5.95;3.20;;;;;;;22.28;74.77;100240.13;3484750;41;20043;-71
2021/08/09 00:37:42;;;;;;;4.63;3.63;;;;;;;22.37;75.17;100242.09;3484844;41;20357;-72
2021/08/09 00:40:09;;;;;;;5.03;3.90;;;;;;;22.02;76.30;100246.38;3476456;41;20169;-71
2021/08/09 00:50:03;;;;;;;5.47;3.50;;;;;;;21.77;77.83;100237.81;3493372;41;21396;-73
2021/08/09 00:52:31;;;;;;;6.80;3.50;;;;;;;21.84;77.32;100237.31;3494801;41;20025;-71
2021/08/09 00:59:58;;;;;;;4.00;3.60;;;;;;;21.18;80.34;100232.38;3493922;41;20050;-70
2021/08/09 01:04:53;;;;;;;6.32;3.85;;;;;;;21.20;80.53;100237.44;3558048;23;20069;-71
2021/08/09 01:07:49;;;;;;;4.90;3.40;;;;;;;21.57;79.62;100234.84;3549585;24;20041;-71
2021/08/09 01:18:06;;;;;;;5.53;3.30;;;;;;;21.60;80.79;100244.16;3492679;41;20045;-71
2021/08/09 01:20:54;;;;;;;5.63;3.30;;;;;;;21.87;80.04;100246.63;3494442;41;20044;-71
2021/08/09 01:23:49;;;;;;;5.13;3.60;;;;;;;21.74;80.67;100245.78;3494409;41;20042;-71
2021/08/09 01:34:14;;;;;;;4.72;3.10;;;;;;;21.83;81.17;100251.19;3624840;23;20082;-74
2021/08/09 01:37:05;;;;;;;4.35;3.58;;;;;;;21.71;81.77;100246.81;3623802;24;20029;-71
2021/08/09 01:59:25;;;;;;;4.40;3.72;;;;;;;21.04;85.29;100235.06;1171863;23;20175;-73
2021/08/09 02:10:53;;;;;;;5.90;3.67;;;;;;;21.30;83.64;100230.72;3527828;23;20053;-72
2021/08/09 02:16:17;;;;;;;5.90;3.60;;;;;;;21.26;84.31;100226.69;1379127;23;20245;-73
2021/08/09 02:29:02;;;;;;;5.68;3.80;;;;;;;21.38;83.32;100242.22;3587942;23;20084;-71
2021/08/09 02:36:37;;;;;;;13.55;4.32;;;;;;;20.95;85.56;100243.44;3527323;23;20069;-72
2021/08/09 02:39:30;;;;;;;6.28;3.70;;;;;;;21.09;85.23;100233.03;3550594;24;20042;-71
2021/08/09 02:52:39;;;;;;;5.72;4.00;;;;;;;21.37;84.22;100231.97;3590073;23;20053;-72
2021/08/09 03:07:57;;;;;;;6.15;3.95;;;;;;;20.97;86.59;100238.16;3688732;23;20265;-72
2021/08/09 03:23:35;;;;;;;7.18;4.18;;;;;;;20.78;88.07;100237.72;3652792;23;21005;-73
2021/08/09 03:28:39;;;;;;;8.25;4.55;;;;;;;21.37;86.09;100250.09;3720062;23;21788;-72
2021/08/09 03:31:06;;;;;;;8.10;4.50;;;;;;;21.49;85.07;100249.25;1446766;23;20194;-72
2021/08/09 03:41:00;;;;;;;8.95;4.32;;;;;;;21.16;86.62;100247.19;3492162;41;20066;-70
2021/08/09 03:43:27;;;;;;;9.15;4.63;;;;;;;21.79;83.31;100229.00;3490190;41;20413;-70
2021/08/09 03:45:55;;;;;;;6.30;4.60;;;;;;;21.58;85.72;100235.66;3482918;41;20041;-72
2021/08/09 03:48:21;;;;;;;6.57;4.63;;;;;;;21.54;84.04;100242.00;3493058;41;20441;-71
2021/08/09 03:50:48;;;;;;;10.73;5.40;;;;;;;21.74;83.09;100246.63;3491680;41;20041;-70
2021/08/09 04:08:22;;;;;;;10.48;5.88;;;;;;;21.57;80.41;100260.72;3549259;24;20061;-71
2021/08/09 04:10:50;;;;;;;8.90;5.20;;;;;;;22.15;78.78;100267.88;3468120;41;20046;-69
2021/08/09 04:13:17;;;;;;;8.88;5.38;;;;;;;21.84;77.70;100267.53;3456071;41;20059;-72
2021/08/09 04:15:43;;;;;;;7.70;4.32;;;;;;;22.12;75.50;100278.47;3467385;41;20247;-70
2021/08/09 04:18:11;;;;;;;5.35;3.70;;;;;;;21.71;75.99;100279.66;3459783;41;20050;-71
2021/08/09 04:20:38;;;;;;;6.75;4.20;;;;;;;21.22;78.38;100290.75;3472860;41;20089;-70
2021/08/09 04:23:04;;;;;;;8.00;4.53;;;;;;;21.12;77.74;100283.69;3472830;41;20337;-69
2021/08/09 04:25:31;;;;;;;6.60;3.90;;;;;;;21.69;76.19;100281.53;3472056;41;20042;-72
2021/08/09 04:37:58;;;;;;;6.85;4.10;;;;;;;22.39;76.10;100286.03;3480778;41;20086;-68
2021/08/09 04:40:26;;;;;;;12.90;4.45;;;;;;;22.02;77.91;100281.81;3482360;41;20136;-72
2021/08/09 04:42:52;;;;;;;8.88;4.40;;;;;;;22.16;77.28;100281.66;3461821;41;20479;-70
2021/08/09 04:45:17;;;;;;;8.35;4.80;;;;;;;21.72;78.02;100292.50;3463454;41;20039;-69
2021/08/09 04:47:44;;;;;;;6.57;3.88;;;;;;;21.63;76.90;100293.09;3464891;41;20054;-70
2021/08/09 04:50:10;;;;;;;7.07;3.75;;;;;;;22.15;74.00;100278.22;3464041;41;20047;-69
2021/08/09 04:52:41;;;;;;;7.00;4.15;;;;;;;21.97;75.25;100281.28;3455822;41;20045;-72
2021/08/09 04:55:09;;;;;;;6.63;3.80;;;;;;;22.60;71.83;100281.09;3463211;41;20052;-68
2021/08/09 04:57:35;;;;;;;6.47;3.85;;;;;;;22.81;71.11;100289.91;3445161;41;20035;-68
2021/08/09 05:00:04;;;;;;;6.13;3.42;;;;;;;22.98;69.80;100286.88;3445961;41;20028;-70
2021/08/09 05:02:30;;;;;;;7.72;3.67;;;;;;;22.97;69.94;100293.00;3445513;41;20211;-70
2021/08/09 05:04:58;;;;;;;6.85;3.55;;;;;;;23.35;68.49;100297.97;3445783;41;20032;-70
2021/08/09 05:07:24;;;;;;;7.13;3.60;;;;;;;23.53;65.71;100297.38;3436290;42;20089;-67
2021/08/09 05:09:50;;;;;;;8.10;3.50;;;;;;;23.21;66.12;100301.56;3436234;42;20044;-69
2021/08/09 05:12:15;;;;;;;7.85;3.78;;;;;;;23.61;66.00;100304.59;3437032;42;20055;-69
2021/08/09 05:14:43;;;;;;;7.88;3.80;;;;;;;23.84;65.82;100296.69;3436901;41;20039;-68
2021/08/09 05:17:09;;;;;;;10.50;3.97;;;;;;;24.26;64.31;100296.91;3437653;41;20428;-69
2021/08/09 05:19:36;;;;;;;7.20;3.80;;;;;;;24.20;63.46;100299.97;3437188;41;20069;-69
2021/08/09 05:22:02;;;;;;;6.78;3.78;;;;;;;23.99;64.33;100305.88;3437592;41;20036;-70
2021/08/09 05:24:28;;;;;;;7.35;3.88;;;;;;;24.35;63.07;100306.56;3436067;41;20094;-70
2021/08/09 05:26:55;;;;;;;9.90;3.58;;;;;;;25.06;61.37;100313.78;3443923;41;20060;-69
2021/08/09 05:29:21;;;;;;;8.63;3.97;;;;;;;25.02;61.27;100320.19;3454186;41;20088;-69
2021/08/09 05:31:48;;;;;;;7.63;3.45;;;;;;;25.09;62.36;100319.53;3464004;41;20043;-71
2021/08/09 05:34:14;;;;;;;4.97;3.35;;;;;;;25.18;61.59;100320.53;3463624;41;20175;-69
2021/08/09 05:43:06;;;;;;;12.27;4.07;;;;;;;25.87;59.03;100314.63;3462458;41;20046;-69
2021/08/09 05:45:32;;;;;;;6.90;3.05;;;;;;;25.60;59.84;100325.63;3462621;41;20039;-69
2021/08/09 05:47:58;;;;;;;8.82;2.83;;;;;;;26.37;58.58;100321.53;3461949;41;20097;-70
2021/08/09 05:50:25;;;;;;;11.57;5.10;;;;;;;26.13;58.60;100320.22;3460043;41;20042;-69
2021/08/09 05:52:51;;;;;;;8.57;3.58;;;;;;;26.46;57.28;100317.28;3462500;41;20052;-71
2021/08/09 05:55:17;;;;;;;3.88;2.90;;;;;;;26.17;56.32;100325.03;3463799;41;20039;-69
2021/08/09 05:57:43;;;;;;;4.30;3.03;;;;;;;26.31;56.94;100306.41;3464374;41;20042;-70
2021/08/09 06:00:10;;;;;;;5.78;3.20;;;;;;;26.12;57.38;100305.56;3464810;41;20050;-70
2021/08/09 06:02:46;;;;;;;4.60;3.35;;;;;;;26.59;56.40;100307.41;3465028;41;20035;-73
2021/08/09 06:05:12;;;;;;;5.43;3.38;;;;;;;26.73;55.72;100314.84;3464613;41;20035;-68
2021/08/09 06:07:40;;;;;;;5.60;3.85;;;;;;;26.85;54.94;100310.31;3464292;41;20104;-70
2021/08/09 06:10:07;;;;;;;6.22;3.80;;;;;;;27.60;54.81;100312.94;3465148;41;20039;-70
2021/08/09 06:12:35;;;;;;;6.95;4.43;;;;;;;27.16;54.32;100309.16;3465366;41;20054;-71
2021/08/09 06:15:00;;;;;;;7.90;3.85;;;;;;;27.69;53.51;100312.91;3465327;41;20027;-71
2021/08/09 06:17:26;;;;;;;6.45;3.83;;;;;;;27.85;53.81;100304.47;3474172;41;20049;-71
2021/08/09 06:19:54;;;;;;;6.60;3.85;;;;;;;27.94;52.74;100306.19;3474393;41;20037;-70
2021/08/09 06:22:19;;;;;;;8.15;4.10;;;;;;;27.55;53.37;100304.72;3466673;41;20034;-72
2021/08/09 06:24:45;;;;;;;5.95;3.67;;;;;;;27.63;52.99;100305.66;3473958;41;20363;-70
2021/08/09 06:27:16;;;;;;;6.60;4.25;;;;;;;28.29;51.21;100296.66;3465934;41;20090;-69
2021/08/09 06:29:42;;;;;;;4.85;3.47;;;;;;;28.21;50.17;100301.78;3474462;41;20099;-69
2021/08/09 06:32:17;;;;;;;5.00;3.47;;;;;;;28.33;50.73;100297.16;3475267;41;20050;-69
2021/08/09 06:34:43;;;;;;;9.93;3.67;;;;;;;28.54;49.67;100300.34;3475173;41;20079;-68
2021/08/09 06:37:09;;;;;;;12.15;4.13;;;;;;;28.99;49.67;100300.25;3474407;41;20050;-70
2021/08/09 06:39:36;;;;;;;7.78;4.15;;;;;;;28.81;49.76;100302.06;3474121;41;20038;-70
2021/08/09 06:45:11;;;;;;;5.85;4.22;;;;;;;28.99;48.26;100295.00;3493109;41;20452;-70
2021/08/09 06:47:38;;;;;;;;;;;;;;;29.45;48.26;100291.25;3494550;41;20043;-70
2021/08/09 06:50:06;;;;;;;10.90;4.47;;;;;;;29.41;47.33;100290.72;3494042;41;19948;-70
2021/08/09 06:52:35;;;;;;;8.02;3.67;;;;;;;29.34;47.85;100291.47;3494054;41;20074;-70
2021/08/09 06:55:01;;;;;;;5.93;4.40;;;;;;;29.70;47.37;100293.00;3494062;41;20033;-70
2021/08/09 06:57:28;;;;;;;8.13;3.90;;;;;;;29.70;46.81;100290.38;3494076;41;20805;-70
2021/08/09 06:59:54;;;;;;;13.55;4.32;;;;;;;29.50;46.55;100302.06;3494215;41;20038;-69
2021/08/09 07:02:20;;;;;;;7.75;3.38;;;;;;;29.74;45.99;100296.97;3492320;41;20048;-71
2021/08/09 07:04:46;;;;;;;6.05;3.40;;;;;;;29.56;46.26;100299.66;3492636;41;20029;-70
2021/08/09 07:07:12;;;;;;;4.55;3.40;;;;;;;29.83;46.10;100298.66;3492634;41;20325;-71
2021/08/09 07:09:38;;;;;;;7.45;3.60;;;;;;;30.72;43.69;100297.06;3492324;41;20038;-68
2021/08/09 07:12:04;;;;;;;5.20;3.35;;;;;;;30.28;45.03;100301.78;3484470;41;20043;-71
2021/08/09 07:14:30;;;;;;;8.63;3.17;;;;;;;30.34;45.36;100295.88;3492738;41;20045;-69
2021/08/09 07:16:58;;;;;;;4.13;3.15;;;;;;;30.52;43.99;100291.31;3483926;41;20426;-70
2021/08/09 07:19:24;;;;;;;4.80;3.00;;;;;;;30.24;44.90;100300.44;3494167;41;20129;-70
2021/08/09 07:21:50;;;;;;;4.45;3.00;;;;;;;30.53;44.76;100294.75;3493623;41;20049;-71
2021/08/09 07:24:16;;;;;;;3.13;2.63;;;;;;;30.99;44.12;100290.66;3493366;41;20421;-70
2021/08/09 07:26:43;;;;;;;5.43;3.15;;;;;;;30.75;43.39;100288.84;3484406;41;20037;-69
2021/08/09 07:29:09;;;;;;;6.88;3.22;;;;;;;30.73;43.45;100286.41;3492521;41;20045;-70
2021/08/09 07:31:36;;;;;;;8.65;3.15;;;;;;;31.16;42.14;100289.69;3492675;41;20038;-69
2021/08/09 07:34:02;;;;;;;8.30;3.78;;;;;;;31.10;43.00;100282.47;3492859;41;20034;-70
2021/08/09 07:36:29;;;;;;;4.55;3.00;;;;;;;31.36;42.10;100286.50;3483318;41;20306;-70
2021/08/09 07:38:55;;;;;;;7.60;3.00;;;;;;;31.54;41.60;100288.94;3493234;41;20038;-69
2021/08/09 07:41:23;;;;;;;6.93;2.90;;;;;;;30.80;44.02;100276.84;3492960;41;20048;-69
2021/08/09 07:46:24;;;;;;;8.32;3.40;;;;;;;31.48;42.19;100279.09;3492545;41;20057;-70
2021/08/09 07:48:50;;;;;;;4.50;2.97;;;;;;;31.73;41.34;100274.56;3473604;41;20060;-70
2021/08/09 07:51:16;;;;;;;3.90;2.90;;;;;;;31.07;42.53;100282.78;3474681;41;20058;-70
2021/08/09 07:53:42;;;;;;;7.07;3.30;;;;;;;31.90;41.08;100278.75;3484575;41;20145;-69
2021/08/09 07:56:08;;;;;;;6.88;3.10;;;;;;;31.59;41.36;100284.00;3484432;41;20030;-70
2021/08/09 07:58:35;;;;;;;6.18;3.08;;;;;;;32.09;41.16;100278.38;3484298;41;20052;-73
2021/08/09 08:01:01;;;;;;;5.82;3.10;;;;;;;32.04;40.38;100278.06;3483602;41;20045;-70
2021/08/09 08:03:26;;;;;;;5.85;3.03;;;;;;;32.64;39.84;100279.00;3483710;41;20041;-69
2021/08/09 08:05:52;;;;;;;4.03;2.95;;;;;;;31.81;41.02;100280.63;3483138;41;20103;-73
2021/08/09 08:08:20;;;;;;;5.90;3.50;;;;;;;31.77;40.28;100281.97;3482875;41;20038;-70
2021/08/09 08:10:46;;;;;;;6.35;3.65;;;;;;;32.33;39.58;100279.03;3483309;41;20030;-69
2021/08/09 08:13:11;;;;;;;9.85;3.22;;;;;;;33.00;38.64;100271.28;3475285;41;20046;-70
2021/08/09 08:15:37;;;;;;;5.20;3.38;;;;;;;32.47;39.06;100274.03;3474030;41;20399;-70
2021/08/09 08:18:05;;;;;;;6.35;3.33;;;;;;;32.59;38.74;100275.22;3483199;41;20086;-73
2021/08/09 08:20:31;;;;;;;3.88;3.05;;;;;;;33.34;37.28;100274.19;3482685;41;20419;-72
2021/08/09 08:22:58;;;;;;;7.47;3.25;;;;;;;33.37;37.41;100275.66;3482714;41;20041;-73
2021/08/09 08:25:23;;;;;;;6.45;2.90;;;;;;;33.20;37.83;100270.56;3472126;41;20042;-71
2021/08/09 08:27:49;;;;;;;4.53;2.60;;;;;;;32.87;37.53;100277.13;3471686;41;20039;-73
2021/08/09 08:30:16;;;;;;;5.47;2.85;;;;;;;32.94;36.60;100262.22;3471438;41;20039;-69
2021/08/09 08:32:42;;;;;;;5.90;2.70;;;;;;;33.68;36.40;100265.75;3481258;41;20444;-69
2021/08/09 08:35:08;;;;;;;3.42;2.63;;;;;;;33.60;36.46;100261.41;3481920;41;20037;-70
2021/08/09 08:37:35;;;;;;;5.05;2.70;;;;;;;33.78;36.28;100261.81;3482154;41;20074;-70
2021/08/09 08:40:02;;;;;;;4.95;2.70;;;;;;;32.87;36.65;100263.97;3472587;41;20041;-69
2021/08/09 08:42:28;;;;;;;3.20;2.40;;;;;;;32.97;36.22;100269.00;3481337;41;20045;-70
2021/08/09 08:44:54;;;;;;;6.53;2.50;;;;;;;34.56;35.04;100255.78;3481299;41;20098;-70
2021/08/09 08:47:21;;;;;;;5.75;2.83;;;;;;;33.80;34.65;100261.63;3481289;41;20065;-72
2021/08/09 08:49:48;;;;;;;7.03;2.60;;;;;;;33.95;36.22;100257.16;3479296;41;20053;-70
2021/08/09 08:52:16;;;;;;;3.70;2.58;;;;;;;34.60;34.02;100259.69;3472985;41;20131;-70
2021/08/09 08:54:42;;;;;;;5.13;2.70;;;;;;;34.88;33.71;100255.22;3474027;41;20055;-72
2021/08/09 08:57:22;;;;;;;4.30;3.00;;;;;;;35.00;33.84;100248.41;3482061;41;20042;-71
2021/08/09 08:59:48;;;;;;;7.32;2.90;;;;;;;34.83;33.87;100252.31;3482635;41;20041;-70
2021/08/09 09:02:30;;;;;;;4.72;2.63;;;;;;;35.16;33.75;100245.44;3482549;41;20041;-75
2021/08/09 09:05:06;;;;;;;3.08;2.60;;;;;;;35.43;31.92;100255.19;3482484;41;20038;-71
2021/08/09 09:07:32;;;;;;;2.85;2.42;;;;;;;35.10;33.05;100251.50;3482291;41;20135;-70
2021/08/09 09:10:16;;;;;;;7.20;3.17;;;;;;;35.69;33.01;100241.25;3480955;41;20124;-68
2021/08/09 09:12:43;;;;;;;3.45;2.95;;;;;;;34.91;34.08;100246.88;3480508;41;20042;-71
2021/08/09 09:15:09;;;;;;;5.50;2.70;;;;;;;35.07;33.45;100243.97;3471732;41;20106;-70
2021/08/09 09:17:38;;;;;;;3.03;2.35;;;;;;;35.02;32.38;100235.81;3480615;41;20038;-69
2021/08/09 09:20:23;;;;;;;3.90;3.00;;;;;;;34.62;34.02;100244.44;3479906;41;20056;-72
2021/08/09 09:22:50;;;;;;;2.65;2.45;;;;;;;35.92;30.52;100236.47;3479549;41;20039;-72
2021/08/09 09:25:17;;;;;;;4.40;2.40;;;;;;;35.80;31.17;100234.56;3471058;41;20038;-73
2021/08/09 09:27:42;;;;;;;5.05;2.38;;;;;;;35.83;29.74;100247.41;3479818;41;20398;-71
2021/08/09 09:30:29;;;;;;;4.68;2.70;;;;;;;35.01;31.05;100238.63;3479337;41;20049;-70
2021/08/09 09:33:01;;;;;;;3.72;2.30;;;;;;;35.58;30.73;100239.16;3479189;41;20042;-72
2021/08/09 09:35:27;;;;;;;4.05;2.50;;;;;;;35.96;29.99;100237.69;3478881;41;20038;-70
2021/08/09 09:37:54;;;;;;;2.78;1.92;;;;;;;36.15;29.46;100231.63;3478945;41;20030;-70
2021/08/09 09:40:20;;;;;;;2.80;2.30;;;;;;;36.29;27.61;100235.13;3480214;41;20046;-69
2021/08/09 09:42:48;;;;;;;3.28;1.73;;;;;;;36.58;26.01;100239.22;3480580;41;20074;-70
2021/08/09 09:45:32;;;;;;;2.40;2.03;;;;;;;36.77;26.44;100239.19;3479992;41;20038;-70
2021/08/09 09:48:09;;;;;;;4.72;2.05;;;;;;;36.85;25.47;100236.34;3480555;41;20396;-73
2021/08/09 09:50:43;;;;;;;3.67;2.05;;;;;;;36.90;24.08;100233.94;3479649;41;20053;-73
2021/08/09 09:53:16;;;;;;;3.47;2.00;;;;;;;36.37;25.10;100237.56;3471047;41;20038;-72
2021/08/09 09:55:43;;;;;;;4.07;1.80;;;;;;;36.68;24.30;100232.50;3472176;41;20043;-73
2021/08/09 09:58:11;;;;;;;3.90;2.20;;;;;;;36.32;26.37;100224.09;3472955;41;20038;-71
2021/08/09 10:00:37;;;;;;;5.22;2.20;;;;;;;35.77;26.55;100219.09;3472632;41;20050;-70
2021/08/09 10:03:03;;;;;;;2.42;2.00;;;;;;;36.38;25.38;100217.97;3473037;41;20068;-70
2021/08/09 10:05:30;;;;;;;4.05;2.40;;;;;;;37.09;26.49;100222.44;3473201;41;20428;-72
2021/08/09 10:07:57;;;;;;;2.67;2.10;;;;;;;37.16;25.62;100217.13;3473490;41;20031;-70
2021/08/09 10:10:24;;;;;;;4.28;2.13;;;;;;;37.40;25.30;100218.31;3473819;41;20042;-69
2021/08/09 10:12:51;;;;;;;2.20;1.90;;;;;;;36.83;25.21;100211.03;3473327;41;20035;-70
2021/08/09 10:15:19;;;;;;;4.15;1.88;;;;;;;36.84;24.48;100215.34;3463592;41;20035;-69
2021/08/09 10:17:48;;;;;;;1.85;1.65;;;;;;;37.23;21.90;100207.28;3472340;41;20047;-70
2021/08/09 10:20:16;;;;;;;4.15;1.80;;;;;;;37.43;22.95;100208.06;3472142;41;20062;-70
2021/08/09 10:22:55;;;;;;;2.35;1.70;;;;;;;37.31;22.46;100209.72;3472526;41;20035;-71
2021/08/09 10:25:45;;;;;;;1.92;1.55;;;;;;;36.51;22.99;100212.69;3464556;41;20046;-73
2021/08/09 10:28:11;;;;;;;3.55;1.80;;;;;;;37.55;21.83;100203.72;3473762;41;20035;-73
2021/08/09 10:30:37;;;;;;;2.47;1.70;;;;;;;37.74;23.58;100204.63;3473549;41;20050;-75
2021/08/09 10:33:10;;;;;;;2.17;1.92;;;;;;;37.19;22.46;100209.56;3473758;41;20314;-73
2021/08/09 10:35:46;;;;;;;1.98;1.70;;;;;;;37.65;22.45;100205.91;3473942;41;20418;-72
2021/08/09 10:38:18;;;;;;;2.50;1.90;;;;;;;37.38;22.91;100199.91;3473913;41;20038;-70
2021/08/09 10:49:08;;;;;;;1.85;1.52;;;;;;;37.61;21.17;100207.38;3492194;41;20317;-71
2021/08/09 10:51:52;;;;;;;2.10;1.77;;;;;;;38.03;22.09;100194.25;3485706;41;20045;-70
2021/08/09 10:54:28;;;;;;;2.17;1.48;;;;;;;38.04;20.73;100200.38;3494418;41;20034;-71
2021/08/09 10:56:55;;;;;;;3.13;1.90;;;;;;;37.49;21.68;100188.63;3485167;41;20034;-71
2021/08/09 10:59:44;;;;;;;2.15;1.67;;;;;;;38.15;20.95;100189.09;3494365;41;20037;-71
2021/08/09 11:02:21;;;;;;;2.17;1.73;;;;;;;38.58;21.12;100189.97;3484638;41;20041;-72
2021/08/09 11:05:14;;;;;;;3.38;1.63;;;;;;;37.56;20.81;100193.94;3492530;41;20044;-71
2021/08/09 11:07:46;;;;;;;1.98;1.70;;;;;;;37.46;21.73;100197.00;3484428;41;20118;-74
2021/08/09 11:10:12;;;;;;;2.75;1.88;;;;;;;37.46;21.54;100190.91;3484244;41;20049;-71
2021/08/09 11:13:00;;;;;;;6.50;1.60;;;;;;;37.23;20.78;100183.41;3492879;41;20029;-69
2021/08/09 11:15:27;;;;;;;2.10;1.73;;;;;;;38.63;21.02;100179.47;3493107;41;20109;-73
2021/08/09 11:17:58;;;;;;;2.78;1.73;;;;;;;38.06;20.79;100172.56;3493272;41;20351;-72
2021/08/09 11:20:34;;;;;;;4.90;1.70;;;;;;;37.62;21.94;100167.31;3493174;41;20061;-73
2021/08/09 11:23:04;;;;;;;3.50;1.80;;;;;;;38.80;20.93;100175.25;3492431;41;20038;-73
2021/08/09 11:25:42;;;;;;;3.28;1.65;;;;;;;37.83;21.30;100160.91;3483657;41;20049;-71
2021/08/09 11:28:18;;;;;;;1.90;1.75;;;;;;;37.91;21.47;100169.44;3490944;41;20045;-71
2021/08/09 11:30:53;;;;;;;3.35;1.77;;;;;;;38.27;21.88;100165.28;3491497;41;20034;-70
2021/08/09 11:33:36;;;;;;;2.70;1.70;;;;;;;38.38;20.55;100165.38;3490944;41;20419;-70
2021/08/09 11:36:13;;;;;;;2.33;1.85;;;;;;;38.60;20.39;100169.28;3469989;41;20051;-70
2021/08/09 11:38:49;;;;;;;2.85;1.80;;;;;;;39.30;21.19;100159.91;3470469;41;20038;-72
2021/08/09 11:41:19;;;;;;;5.20;1.80;;;;;;;38.53;20.57;100160.53;3470361;41;20034;-69
2021/08/09 11:43:46;;;;;;;4.40;2.00;;;;;;;38.88;20.93;100158.16;3470456;41;20035;-70
2021/08/09 11:46:16;;;;;;;3.58;1.70;;;;;;;38.06;20.96;100147.84;3469956;41;20049;-70
2021/08/09 11:48:45;;;;;;;3.40;1.90;;;;;;;39.31;20.79;100144.75;3475612;41;20054;-70
2021/08/09 11:51:16;;;;;;;3.47;1.95;;;;;;;37.61;20.47;100143.63;3482005;41;20048;-74
2021/08/09 11:53:46;;;;;;;2.53;1.65;;;;;;;37.80;20.54;100143.53;3489105;41;20068;-70
2021/08/09 11:56:38;;;;;;;2.47;1.90;;;;;;;39.02;20.61;100149.78;3479901;41;20046;-70
2021/08/09 11:59:12;;;;;;;15.85;2.35;;;;;;;39.36;19.60;100135.03;3488977;41;20406;-69
2021/08/09 12:01:43;;;;;;;4.00;1.90;;;;;;;38.16;20.03;100138.34;3487972;41;20038;-70
2021/08/09 12:04:15;;;;;;;5.13;1.73;;;;;;;39.53;19.27;100132.59;3487585;41;20042;-70
2021/08/09 12:06:48;;;;;;;2.72;1.77;;;;;;;38.56;20.11;100130.03;3479446;41;20097;-69
2021/08/09 12:09:23;;;;;;;2.45;1.73;;;;;;;39.17;19.63;100132.66;3488083;41;20129;-69
2021/08/09 12:11:59;;;;;;;3.08;1.70;;;;;;;38.94;20.52;100125.34;3488142;41;20034;-70
2021/08/09 12:14:25;;;;;;;4.50;1.90;;;;;;;39.02;19.57;100123.16;3480474;41;20046;-72
2021/08/09 12:16:53;;;;;;;4.45;1.90;;;;;;;39.09;19.78;100111.63;3488432;41;20106;-69
2021/08/09 12:19:44;;;;;;;2.75;1.63;;;;;;;38.90;19.88;100110.84;3489586;41;20178;-70
2021/08/09 12:22:12;;;;;;;2.33;1.63;;;;;;;38.68;20.04;100107.03;3480985;41;20070;-70
2021/08/09 12:24:40;;;;;;;2.80;2.00;;;;;;;38.79;19.22;100104.44;3489153;41;20085;-70
2021/08/09 12:27:22;;;;;;;2.35;1.70;;;;;;;38.95;19.87;100105.66;3488813;41;20501;-70
2021/08/09 12:30:11;;;;;;;2.15;1.80;;;;;;;39.32;20.84;100095.81;3491139;41;20082;-72
2021/08/09 12:32:39;;;;;;;5.03;1.60;;;;;;;39.07;20.00;100093.22;3491136;41;20049;-70
2021/08/09 12:41:04;;;;;;;2.45;1.52;;;;;;;38.93;20.02;100079.28;3479332;41;20049;-70
2021/08/09 12:43:30;;;;;;;1.70;1.60;;;;;;;38.68;18.80;100077.75;3479876;41;20041;-71
2021/08/09 12:45:56;;;;;;;3.17;1.80;;;;;;;38.56;19.76;100077.66;3480233;41;20130;-70
2021/08/09 12:48:24;;;;;;;3.30;1.98;;;;;;;38.16;20.53;100071.91;3481237;41;20054;-70
2021/08/09 12:50:50;;;;;;;2.60;1.73;;;;;;;39.12;19.01;100079.28;3481064;41;20133;-71
2021/08/09 12:53:15;;;;;;;2.78;1.70;;;;;;;38.42;19.81;100076.19;3480691;41;20130;-70
2021/08/09 12:55:41;;;;;;;2.38;2.00;;;;;;;39.04;19.45;100075.84;3472010;41;20469;-69
2021/08/09 12:58:08;;;;;;;4.10;1.90;;;;;;;38.67;19.18;100078.78;3478778;41;20034;-69
2021/08/09 13:00:36;;;;;;;3.53;2.20;;;;;;;38.28;19.29;100072.03;3478441;41;20046;-70
2021/08/09 13:03:02;;;;;;;5.78;1.75;;;;;;;39.18;20.36;100073.88;3478887;41;20053;-71
2021/08/09 13:05:29;;;;;;;2.35;2.00;;;;;;;38.38;20.09;100071.50;3479098;41;20083;-70
2021/08/09 13:07:57;;;;;;;2.88;1.70;;;;;;;38.54;20.25;100066.44;3478617;41;20045;-69
2021/08/09 13:10:23;;;;;;;5.13;2.10;;;;;;;38.74;19.60;100068.91;3477747;41;20102;-69
2021/08/09 13:12:49;;;;;;;4.90;1.95;;;;;;;38.17;20.27;100067.41;3469315;41;20058;-70
2021/08/09 13:15:14;;;;;;;2.20;1.90;;;;;;;38.30;20.36;100071.81;3468434;41;20041;-70
2021/08/09 13:17:40;;;;;;;2.28;2.08;;;;;;;38.14;20.52;100063.34;3478175;41;20038;-70
2021/08/09 13:20:06;;;;;;;4.15;2.22;;;;;;;38.01;20.22;100067.97;3478648;41;20421;-69
2021/08/09 13:22:32;;;;;;;2.67;1.88;;;;;;;38.32;19.56;100075.06;3478831;41;20398;-71
2021/08/09 13:24:58;;;;;;;1.92;1.75;;;;;;;38.53;20.49;100074.66;3478010;41;20106;-69
2021/08/09 13:27:24;;;;;;;2.03;1.75;;;;;;;38.22;20.07;100070.25;3467938;41;20041;-70
2021/08/09 13:29:51;;;;;;;3.92;1.80;;;;;;;38.58;19.66;100067.63;3467676;41;20046;-70
2021/08/09 13:32:17;;;;;;;2.53;1.60;;;;;;;38.66;19.80;100061.22;3477366;41;20041;-70
2021/08/09 13:34:43;;;;;;;1.92;1.70;;;;;;;38.90;19.46;100055.81;3477248;41;20346;-70
2021/08/09 13:37:08;;;;;;;3.75;1.70;;;;;;;38.35;20.36;100051.50;3476064;41;20037;-68
2021/08/09 13:42:23;;;;;;;2.70;1.90;;;;;;;38.30;19.24;100059.34;3477577;41;20397;-69
2021/08/09 13:44:50;;;;;;;4.95;1.90;;;;;;;38.68;19.23;100057.31;3475221;41;20046;-70
2021/08/09 13:47:17;;;;;;;2.58;1.80;;;;;;;38.13;19.81;100058.25;3477165;41;20042;-69
2021/08/09 13:49:43;;;;;;;3.25;1.52;;;;;;;38.03;20.06;100060.59;3476400;41;20030;-70
2021/08/09 13:52:12;;;;;;;6.90;1.90;;;;;;;38.01;20.27;100058.13;3478430;41;20453;-70
2021/08/09 13:54:39;;;;;;;4.80;1.90;;;;;;;37.86;20.20;100057.66;3479244;41;20032;-70
2021/08/09 13:57:05;;;;;;;3.17;1.60;;;;;;;38.48;19.87;100058.53;3480450;41;20078;-71
2021/08/09 13:59:31;;;;;;;3.97;1.70;;;;;;;38.61;19.24;100050.41;3479648;41;20027;-71
2021/08/09 14:01:57;;;;;;;2.28;1.70;;;;;;;38.17;19.83;100051.47;3480163;41;20098;-70
2021/08/09 14:04:23;;;;;;;2.88;1.80;;;;;;;38.47;20.21;100051.59;3470331;41;20394;-70
2021/08/09 14:06:48;;;;;;;2.25;1.80;;;;;;;38.02;19.97;100048.34;3479616;41;20149;-70
2021/08/09 14:09:14;;;;;;;3.60;1.80;;;;;;;38.29;20.63;100049.75;3478853;41;20428;-70
2021/08/09 14:11:40;;;;;;;2.72;1.90;;;;;;;37.89;20.77;100046.63;3477567;41;20088;-70
2021/08/09 14:14:06;;;;;;;2.63;1.60;;;;;;;38.16;20.52;100039.19;3469174;41;20126;-69
2021/08/09 14:16:33;;;;;;;2.20;1.60;;;;;;;37.84;20.24;100040.31;3480682;41;20046;-70
2021/08/09 14:18:59;;;;;;;2.03;1.70;;;;;;;38.62;20.12;100038.72;3480455;41;20050;-69
2021/08/09 14:21:25;;;;;;;3.97;1.98;;;;;;;38.48;20.47;100037.25;3470412;41;20301;-69
2021/08/09 14:23:53;;;;;;;2.40;2.00;;;;;;;38.22;20.62;100035.69;3480470;41;20045;-70
2021/08/09 14:26:19;;;;;;;4.50;1.80;;;;;;;37.68;20.91;100035.50;3478906;41;20259;-70
2021/08/09 14:28:45;;;;;;;4.53;1.77;;;;;;;38.32;20.46;100037.84;3481532;41;20034;-69
2021/08/09 14:31:11;;;;;;;1.75;1.60;;;;;;;37.77;20.13;100035.09;3481639;41;20042;-71
2021/08/09 14:33:37;;;;;;;3.08;1.65;;;;;;;38.07;20.14;100029.91;3482824;41;20078;-72
2021/08/09 14:36:05;;;;;;;3.55;1.90;;;;;;;38.29;20.50;100031.13;3231062;41;10001026;-71
2021/08/09 14:38:32;;;;;;;4.78;2.00;;;;;;;38.32;19.66;100030.69;3478093;41;20050;-70
2021/08/09 14:40:58;;;;;;;4.22;1.80;;;;;;;38.33;19.39;100039.47;3480944;41;20041;-72